• Join FlightAware (Why Join?)
  • Login
  • US Flag 
05:40AM EST


 

Airport Tracker/Info


-or-


 

Live Flight TrackerFlight Track Log ✈ TCF3494 ✈ 17-Sep-2013 ✈ KDEN - KSLC

Flight Track Log - Related Links

Times and Time Zones

All times are in EDT time to prevent confusion due to time zone crossing. See the TCF3494 flight status page for this flight to view local times or setup timezone preferences in your user account.

Time Position Orientation Groundspeed Altitude Reporting Facility
EDT Latitude Longitude Course Direction KTS MPH feet Rate Location/Type
10:52AM 39.8500 -104.8000 276° West 211 243 7,000  Level Denver TRACON
10:53AM 39.9000 -104.8667 314° West 282 325 8,800 1,920 Climbing Denver TRACON
10:54AM 39.9493 -105.2283 270° West  Level Estimated
10:54AM 39.9131 -104.9081 292° West 277 319 9,800  Level Denver Center
10:55AM 39.9707 -105.3673 275° West  Level Estimated
10:55AM 39.9503 -105.0239 293° West 328 377 11,300  Level Denver Center
10:56AM 39.9921 -105.5064 277° West  Level Estimated
10:56AM 39.9606 -105.1422 277° West 331 381 14,400  Level Denver Center
10:57AM 39.9855 -105.6480 267° West  Level FlightAware Approximate
10:57AM 39.9528 -105.2739 266° West 339 390 17,100  Level Denver Center
10:58AM 40.0070 -105.7871 276° West  Level Estimated
10:58AM 39.9444 -105.3969 265° West 342 394 19,400  Level Denver Center
10:59AM 39.9381 -105.5344 267° West 356 410 21,600 1,980 Climbing Denver Center
11:00AM 39.9156 -105.6642 257° West 367 422 23,500 1,740 Climbing Denver Center
11:01AM 39.8903 -105.7964 256° West 373 429 25,300 1,620 Climbing Denver Center
11:02AM 39.9056 -105.9308 278° West 378 435 26,900 1,380 Climbing Denver Center
11:03AM 39.9178 -106.0722 276° West 392 451 28,200 1,320 Climbing Denver Center
11:04AM 39.9317 -106.2133 277° West 395 455 29,700 1,500 Climbing Denver Center
11:05AM 39.9458 -106.3853 276° West 399 459 31,300 1,260 Climbing Denver Center
11:06AM 39.9589 -106.5264 277° West 395 455 32,400 1,080 Climbing Denver Center
11:07AM 39.9700 -106.6639 276° West 397 457 33,600 960 Climbing Denver Center
11:08AM 39.9822 -106.8189 276° West 388 447 34,500 900 Climbing Denver Center
11:09AM 39.9911 -106.9306 276° West 389 448 35,500 720 Climbing Denver Center
11:10AM 40.0056 -107.1083 276° West 387 445 36,000 240 Climbing Denver Center
11:11AM 40.0161 -107.2408 276° West 386 444 36,000  Level Denver Center
11:12AM 40.0289 -107.3958 276° West 386 444 36,000  Level Denver Center
11:13AM 40.0389 -107.5311 276° West 391 450 36,000  Level Denver Center
11:14AM 40.0500 -107.6867 275° West 389 448 36,000  Level Denver Center
11:15AM 40.0594 -107.8189 275° West 383 441 36,000  Level Denver Center
11:16AM 40.0708 -107.9708 276° West 379 436 36,000  Level Denver Center
11:17AM 40.0756 -108.1022 273° West 379 436 36,000  Level Denver Center
11:19AM 40.0828 -108.2536 274° West 375 432 36,000  Level Denver Center
11:20AM 40.0881 -108.3836 273° West 377 434 36,000  Level Denver Center
11:21AM 40.0944 -108.5342 273° West 376 433 36,000  Level Denver Center
11:22AM 40.1006 -108.6653 274° West 379 436 36,000  Level Denver Center
11:23AM 40.1056 -108.8172 273° West 378 435 36,000  Level Denver Center
11:24AM 40.1106 -108.9444 273° West 371 427 36,000  Level Denver Center
11:25AM 40.1153 -109.0936 272° West 370 426 36,000  Level Denver Center
11:25AM 40.1186 -109.1575 274° West 371 427 36,000  Level Salt Lake Center
11:26AM 40.1236 -109.3061 273° West 369 425 36,000  Level Salt Lake Center
11:27AM 40.1275 -109.4336 272° West 369 425 36,000  Level Salt Lake Center
11:28AM 40.1319 -109.5831 272° West 370 426 36,000 -60 Level Salt Lake Center
11:29AM 40.1347 -109.7089 272° West 366 421 35,900 -780 Descending Salt Lake Center
11:30AM 40.1083 -109.8531 257° West 365 420 34,500 -1,260 Descending Salt Lake Center
11:32AM 40.0864 -109.9772 257° West 368 423 33,400 -1,260 Descending Salt Lake Center
11:33AM 40.0589 -110.1228 256° West 370 426 32,000 -1,260 Descending Salt Lake Center
11:34AM 40.0372 -110.2517 258° West 378 435 30,900 -1,020 Descending Salt Lake Center
11:35AM 40.0106 -110.4033 257° West 384 442 30,000 -480 Descending Salt Lake Center
11:36AM 39.9714 -110.5250 247° West 382 440 30,000  Level Salt Lake Center
11:37AM 39.9178 -110.6639 243° Southwest 383 441 30,000  Level Salt Lake Center
11:38AM 39.8719 -110.7825 243° Southwest 382 440 30,000 -180 Level Salt Lake Center
11:39AM 39.8261 -110.9003 243° Southwest 383 441 29,700 -900 Descending Salt Lake Center
11:40AM 39.7769 -111.0367 245° Southwest 375 432 28,200 -1,440 Descending Salt Lake Center
11:41AM 39.8211 -111.1575 295° West 385 443 26,800 -1,800 Descending Salt Lake Center
11:42AM 39.9133 -111.2681 317° Northwest 399 459 24,600 -2,040 Descending Salt Lake Center
11:43AM 39.9844 -111.3625 315° West 385 443 22,600 -2,100 Descending Salt Lake Center
11:44AM 40.0519 -111.4594 312° West 381 438 20,700 -2,040 Descending Salt Lake Center
11:44AM 40.0636 -111.4628 348° North 383 441 20,500 -2,160 Descending Salt Lake Center
11:44AM 40.0986 -111.5192 309° West 382 440 19,400 -1,500 Descending Salt Lake Center
11:45AM 40.1344 -111.5650 316° Northwest 372 428 19,000 -420 Descending Salt Lake Center
11:45AM 40.1567 -111.6367 292° West 372 428 19,000  Level Salt Lake Center
11:46AM 40.1817 -111.6867 303° West 374 430 19,000  Level Salt Lake Center
11:46AM 40.2039 -111.7639 291° West 376 433 19,000 -240 Level Salt Lake Center
11:47AM 40.2356 -111.8339 301° West 378 435 18,800 -840 Descending Salt Lake Center
11:47AM 40.2472 -111.8731 291° West 362 417 18,200 -1,980 Descending Salt Lake Center
11:48AM 40.2886 -111.9453 307° West 369 425 16,800 -1,740 Descending Salt Lake Center
11:48AM 40.3075 -111.9706 314° West 367 422 16,600 -1,200 Descending Salt Lake Center
11:49AM 40.3753 -112.0156 333° Northwest 365 420 15,600 -1,200 Descending Salt Lake Center
11:49AM 40.3964 -112.0392 320° Northwest 356 410 15,400 -1,560 Descending Salt Lake Center
11:50AM 40.4644 -112.0558 349° North 351 404 14,000 -1,920 Descending Salt Lake Center
11:50AM 40.4942 -112.0653 346° North 354 407 13,500 -1,920 Descending Salt Lake Center
11:51AM 40.5908 -112.0750 356° North 345 397 11,700 -1,380 Descending Salt Lake Center
11:52AM 40.6506 -112.0800 356° North 326 375 11,000 -600 Descending Salt Lake Center
11:52AM 40.6747 -112.0864 349° North 285 328 11,100  Climbing Salt Lake Center
11:53AM 40.7364 -112.0903 357° North 253 291 11,000 -120 Descending Salt Lake Center
11:53AM 40.7450 -112.0936 344° North 255 293 11,000 -420 Level Salt Lake Center
11:54AM 40.8061 -112.0989 356° North 248 285 10,600 -600 Descending Salt Lake Center
11:54AM 40.8153 -112.1011 350° North 251 289 10,400 -1,260 Descending Salt Lake Center
11:55AM 40.8750 -112.1069 356° North 247 284 9,300 -1,140 Descending Salt Lake Center
11:55AM 40.8856 -112.1083 354° North 247 284 9,300 -1,260 Level Salt Lake Center
11:56AM 40.9425 -112.1147 355° North 244 281 8,000 -1,320 Descending Salt Lake Center
11:56AM 40.9519 -112.1172 349° North 243 280 8,000  Level Salt Lake Center
11:57AM 41.0033 -112.1075 North 231 266 8,000 60 Level Salt Lake Center
11:57AM 41.0086 -112.0981 53° Northeast 224 258 8,100 -120 Climbing Salt Lake Center
11:58AM 40.9872 -112.0489 120° Southeast 193 222 7,900  Descending Salt Lake Center
11:58AM 40.9797 -112.0394 136° Southeast 189 217 8,100 -720 Climbing Salt Lake Center
11:59AM 40.9461 -112.0153 151° Southeast 177 204 7,200 -1,140 Descending Salt Lake Center
11:59AM 40.9361 -112.0147 178° South 174 200 7,000 -1,380 Descending Salt Lake Center
12:00PM 40.8903 -112.0106 176° South 163 188 5,800 -1,020 Descending Salt Lake Center
12:01PM 40.8522 -112.0050 174° South 141 162 5,000 -720 Descending Salt Lake Center
12:03PM 40.8200 -112.0031 177° South 120 138 4,400 -600 Descending Salt Lake Center
12:03PM 40.8214 -112.0003 57° Northeast 115 132 4,400  Level Salt Lake Center